• Join FlightAware (Why Join?)
  • Login
  • US Flag 
11:06PM EDT


 

Airport Tracker/Info


-or-


 

Live Flight TrackerFlight Track Log ✈ UAL395 ✈ 18-Jun-2013 ✈ KIAD - KORD

Flight Track Log - Related Links

Times and Time Zones

All times are in EDT time to prevent confusion due to time zone crossing. See the UAL395 flight status page for this flight to view local times or setup timezone preferences in your user account.

Time Position Orientation Groundspeed Altitude Reporting Facility
EDT Latitude Longitude Course Direction KTS MPH feet Rate Location/Type
02:48PM 38.9500 -77.5167 270° West 165 190 1,800  Level Potomac TRACON
02:49PM 38.9333 -77.5833 252° West 227 261 3,700 2,460 Climbing Potomac TRACON
02:50PM 38.8992 -77.7042 250° West 275 316 7,600 3,120 Climbing Washington Center
02:51PM 38.9014 -77.8083 272° West 275 316 11,000 2,520 Climbing Washington Center
02:52PM 38.9147 -78.0920 288° West  Level FlightAware Approximate
02:52PM 38.9161 -77.9128 280° West 293 337 12,700  Level Washington Center
02:53PM 38.9500 -78.2157 270° West  Level FlightAware Approximate
02:53PM 38.9344 -78.0333 281° West 326 375 15,300  Level Washington Center
02:54PM 38.9547 -78.1622 281° West 356 410 17,500 2,280 Climbing Washington Center
02:55PM 38.9664 -78.2961 276° West 372 428 19,900 2,160 Climbing Washington Center
02:56PM 38.9694 -78.4297 272° West 382 440 21,900 1,740 Climbing Washington Center
02:57PM 38.9742 -78.5847 272° West 390 449 23,400 1,320 Climbing Washington Center
02:58PM 38.9750 -78.7131 271° West 396 456 24,600 1,260 Climbing Washington Center
02:59PM 38.9794 -78.8600 272° West 408 470 26,000 1,200 Climbing Washington Center
03:00PM 38.9858 -79.0100 273° West 415 478 27,100 1,320 Climbing Washington Center
03:01PM 38.9961 -79.1600 275° West 426 490 28,700 1,260 Climbing Washington Center
03:02PM 39.0100 -79.3156 277° West 426 490 29,700 1,200 Climbing Washington Center
03:03PM 39.0219 -79.4658 276° West 426 490 31,100 1,140 Climbing Washington Center
03:04PM 39.0333 -79.6269 275° West 437 503 32,000 960 Climbing Washington Center
03:05PM 39.0444 -79.7906 275° West 437 503 33,000 1,140 Climbing Washington Center
03:06PM 39.0558 -79.9408 276° West 427 491 34,300 1,140 Climbing Washington Center
03:08PM 39.0681 -80.1450 274° West 418 481 36,000 660 Climbing Indianapolis Center
03:09PM 39.0906 -80.2872 282° West 420 483 36,000  Level Indianapolis Center
03:10PM 39.2067 -80.3942 324° Northwest 447 514 36,000  Level Indianapolis Center
03:11PM 39.3394 -80.3872 North 480 552 36,000  Level Indianapolis Center
03:12PM 39.4714 -80.3825 North 487 560 36,000  Level Indianapolis Center
03:13PM 39.5744 -80.4700 327° Northwest 458 527 36,000  Level Indianapolis Center
03:14PM 39.6272 -80.6072 297° West 433 498 36,000  Level Indianapolis Center
03:15PM 39.6736 -80.7483 293° West 426 490 36,000  Level Indianapolis Center
03:16PM 39.7269 -80.9186 292° West 425 489 36,000  Level Indianapolis Center
03:17PM 39.7731 -81.0614 293° West 429 494 36,000  Level Indianapolis Center
03:18PM 39.8181 -81.2061 292° West 432 497 36,000  Level Indianapolis Center
03:19PM 39.8622 -81.3444 293° West 418 481 36,000 -60 Level Indianapolis Center
03:20PM 39.9094 -81.4978 292° West 414 476 35,900  Descending Indianapolis Center
03:21PM 39.9525 -81.6375 292° West 412 474 36,000  Climbing Indianapolis Center
03:22PM 39.9964 -81.7772 292° West 413 475 36,000  Level Indianapolis Center
03:23PM 40.0389 -81.9181 292° West 413 475 36,000 -60 Level Indianapolis Center
03:24PM 40.0803 -82.0556 292° West 408 470 35,900 -60 Descending Indianapolis Center
03:25PM 40.1292 -82.2136 292° West 399 459 35,900  Level Indianapolis Center
03:26PM 40.1689 -82.3475 291° West 393 452 36,000  Climbing Indianapolis Center
03:27PM 40.2100 -82.4839 292° West 399 459 36,000  Level Indianapolis Center
03:28PM 40.2511 -82.6197 292° West 400 460 36,000  Level Indianapolis Center
03:29PM 40.2919 -82.7572 291° West 400 460 36,000  Level Indianapolis Center
03:30PM 40.3325 -82.8931 291° West 401 461 36,000  Level Indianapolis Center
03:31PM 40.3669 -83.0500 286° West 383 441 36,000  Level Indianapolis Center
03:32PM 40.3778 -83.1886 276° West 379 436 36,000  Level Indianapolis Center
03:33PM 40.3875 -83.3269 275° West 380 437 36,000 -60 Level Indianapolis Center
03:34PM 40.3994 -83.4614 277° West 372 428 35,900 -60 Descending Indianapolis Center
03:36PM 40.4133 -83.5975 278° West 375 432 35,900  Level Indianapolis Center
03:37PM 40.4272 -83.7347 278° West 377 434 36,000  Climbing Indianapolis Center
03:38PM 40.4656 -83.8861 288° West 381 438 35,900 -60 Descending Indianapolis Center
03:39PM 40.5158 -84.0125 298° West 388 447 35,900  Level Indianapolis Center
03:40PM 40.5661 -84.1369 298° West 385 443 35,900 -480 Level Indianapolis Center
03:41PM 40.6156 -84.2614 298° West 382 440 35,000 -960 Descending Indianapolis Center
03:42PM 40.6647 -84.3861 297° West 381 438 34,000 -1,020 Descending Indianapolis Center
03:43PM 40.7150 -84.5114 298° West 383 441 33,000 -1,020 Descending Indianapolis Center
03:44PM 40.7647 -84.6367 298° West 383 441 32,000 -540 Descending Indianapolis Center
03:45PM 40.8217 -84.7828 297° West 380 437 32,000 -60 Level Indianapolis Center
03:46PM 40.8703 -84.9075 297° West 378 435 31,900  Descending Indianapolis Center
03:47PM 40.8981 -84.9783 297° West 377 434 32,000  Climbing Chicago Center
03:48PM 40.9464 -85.1036 297° West 381 438 32,000  Level Chicago Center
03:49PM 41.0172 -85.2442 304° West 385 443 32,000  Level Chicago Center
03:50PM 41.0625 -85.3683 296° West 374 430 32,000 -720 Level Chicago Center
03:51PM 41.1064 -85.4997 294° West 385 443 30,600 -1,800 Descending Chicago Center
03:52PM 41.1497 -85.6317 294° West 388 447 28,300 -2,220 Descending Chicago Center
03:53PM 41.1950 -85.7700 294° West 403 464 26,100 -1,620 Descending Chicago Center
03:54PM 41.2422 -85.9144 294° West 421 484 25,000 -960 Descending Chicago Center
03:55PM 41.2894 -86.0600 293° West 429 494 24,200 -1,560 Descending Chicago Center
03:56PM 41.3342 -86.2417 288° West 431 496 21,800 -2,160 Descending Chicago Center
03:57PM 41.3708 -86.3872 289° West 423 487 19,800 -1,920 Descending Chicago Center
03:58PM 41.4067 -86.5308 288° West 410 472 17,800 -1,920 Descending Chicago Center
03:59PM 41.4408 -86.6714 288° West 401 461 15,900 -2,040 Descending Chicago Center
04:00PM 41.4817 -86.8297 289° West 388 447 13,600 -1,560 Descending Chicago Center
04:01PM 41.5142 -86.9622 288° West 382 440 12,600 -780 Descending Chicago Center
04:02PM 41.5447 -87.0906 288° West 365 420 12,000 -300 Descending Chicago Center
04:03PM 41.5733 -87.2106 288° West 341 392 12,000  Level Chicago Center
04:04PM 41.6358 -87.3317 305° West 337 388 12,000 -660 Level Chicago Center
04:05PM 41.6928 -87.4228 310° West 325 374 10,700 -1,020 Descending Chicago Center
04:06PM 41.7428 -87.5058 309° West 296 341 9,900 -1,020 Descending Chicago Center
04:07PM 41.7886 -87.5814 309° West 269 310 8,700 -900 Descending Chicago Center
04:08PM 41.8297 -87.6486 309° West 244 281 8,100 -360 Descending Chicago Center
04:09PM 41.8364 -87.7442 275° West 228 262 8,000 -60 Descending Chicago Center
04:10PM 41.8314 -87.8169 265° West 204 235 8,000 -540 Level Chicago Center
04:11PM 41.8239 -87.8853 262° West 191 220 6,900 -1,260 Descending Chicago Center
04:13PM 41.7897 -87.9453 233° Southwest 204 235 5,500 -960 Descending Chicago Center
04:14PM 41.7436 -88.0086 226° Southwest 201 231 5,000 -300 Descending Chicago Center
04:15PM 41.7372 -88.0686 262° West 202 232 5,000 -60 Level Chicago Center
04:16PM 41.7825 -88.0864 344° North 197 227 4,900 -480 Descending Chicago Center
04:17PM 41.8281 -88.0506 30° Northeast 193 222 4,000 -900 Descending Chicago Center